Time;durP1;ratioP1;P1;durP2;ratioP2;P2;SDS_P1;SDS_P2;PMS_P1;PMS_P2;Temp;Humidity;BMP_temperature;BMP_pressure;BME280_temperature;BME280_humidity;BME280_pressure;Samples;Min_cycle;Max_cycle;Signal;HPM_P1;HPM_P2
2023/01/15 00:02:07;;;;;;;0.53;0.50;;;9.60;99.90;;;-141.84;72.41;19476.47;5053345;28;20221;-60
2023/01/15 00:04:36;;;;;;;0.57;0.50;;;9.60;99.90;;;-141.84;72.77;19450.06;5051930;28;20587;-59
2023/01/15 00:07:05;;;;;;;1.07;0.60;;;9.60;99.90;;;-141.84;72.67;19502.91;5053014;28;20224;-61
2023/01/15 00:09:33;;;;;;;0.50;0.50;;;9.60;99.90;;;-141.84;72.05;19476.47;5053592;28;20209;-60
2023/01/15 00:12:01;;;;;;;0.40;0.40;;;9.70;99.90;;;-141.84;72.52;19462.25;5052757;28;20612;-60
2023/01/15 00:14:30;;;;;;;0.53;0.40;;;9.70;99.90;;;-141.84;72.31;19476.47;5052793;28;20229;-59
2023/01/15 00:16:58;;;;;;;0.50;0.50;;;9.70;99.90;;;-141.84;71.80;19504.94;5052579;28;20225;-62
2023/01/15 00:19:26;;;;;;;1.10;0.50;;;9.80;99.90;;;-141.84;71.67;19474.44;5049688;28;20225;-60
2023/01/15 00:21:57;;;;;;;0.50;0.50;;;9.80;99.90;;;-141.84;72.22;19488.69;5033079;28;20214;-60
2023/01/15 00:29:57;;;;;;;0.40;0.40;;;9.80;99.90;;;-141.84;71.74;19476.47;5032761;28;20736;-59
2023/01/15 00:32:26;;;;;;;0.67;0.60;;;9.80;99.90;;;-141.84;71.90;19488.69;5032660;28;20230;-59
2023/01/15 00:34:54;;;;;;;0.40;0.40;;;9.80;99.90;;;-141.84;72.38;19498.84;5036416;28;20244;-59
2023/01/15 00:37:24;;;;;;;0.60;0.60;;;9.80;99.90;;;-141.84;72.07;19482.56;5052173;28;20217;-60
2023/01/15 00:39:52;;;;;;;1.60;0.40;;;9.80;99.90;;;-141.84;73.54;19450.06;5052844;28;20228;-60
2023/01/15 00:42:20;;;;;;;0.50;0.50;;;9.70;99.90;;;-141.84;74.61;19450.06;5051405;28;20229;-60
2023/01/15 00:44:48;;;;;;;0.47;0.40;;;9.60;99.90;;;-141.84;75.19;19427.72;5052205;28;20218;-60
2023/01/15 00:47:17;;;;;;;0.30;0.30;;;9.60;99.90;;;-141.84;75.24;19431.78;5052771;28;20602;-60
2023/01/15 00:49:45;;;;;;;1.33;0.53;;;9.50;99.90;;;-141.84;74.82;19446.00;5046987;28;20214;-60
2023/01/15 00:52:13;;;;;;;0.40;0.40;;;9.60;99.90;;;-141.84;75.19;19441.94;5031735;28;20212;-59
2023/01/15 00:54:43;;;;;;;0.70;0.60;;;9.50;99.90;;;-141.84;75.12;19415.50;5032495;28;20340;-67
2023/01/15 00:57:11;;;;;;;0.60;0.50;;;9.60;99.90;;;-141.84;74.50;19460.22;5031696;28;20740;-67
2023/01/15 00:59:40;;;;;;;0.60;0.50;;;9.60;99.90;;;-141.84;74.30;19456.16;5043701;28;20275;-67
2023/01/15 01:02:08;;;;;;;1.77;0.43;;;9.70;99.90;;;-141.84;74.40;19476.47;5051991;28;20226;-67
2023/01/15 01:04:36;;;;;;;0.50;0.50;;;9.60;99.90;;;-141.84;74.70;19462.25;5050862;28;20316;-67
2023/01/15 01:07:04;;;;;;;1.03;0.50;;;9.60;99.90;;;-141.84;73.96;19468.34;5051690;28;20205;-66
2023/01/15 01:09:33;;;;;;;0.80;0.60;;;9.70;99.90;;;-141.84;74.40;19458.19;5052053;28;20205;-67
2023/01/15 01:12:02;;;;;;;0.50;0.50;;;9.70;99.90;;;-141.84;74.17;19500.88;5051658;28;20221;-67
2023/01/15 01:14:30;;;;;;;0.60;0.50;;;9.80;99.90;;;-141.84;74.68;19460.22;5051722;28;20221;-67
2023/01/15 01:16:59;;;;;;;0.43;0.43;;;9.80;99.90;;;-141.84;74.41;19478.50;5051507;28;20256;-66
2023/01/15 01:19:27;;;;;;;0.83;0.60;;;9.80;99.90;;;-141.84;74.36;19484.59;5048288;28;20226;-67
2023/01/15 01:21:55;;;;;;;0.50;0.50;;;9.80;99.90;;;-141.84;74.46;19480.53;5031698;28;20284;-68
2023/01/15 01:24:25;;;;;;;1.20;0.60;;;9.80;99.90;;;-141.84;74.05;19474.44;5031351;28;20267;-69
2023/01/15 01:26:53;;;;;;;1.10;0.80;;;9.80;99.90;;;-141.84;74.54;19468.34;5031218;28;20234;-68
2023/01/15 01:29:24;;;;;;;1.00;0.50;;;9.80;99.90;;;-141.84;74.29;19466.31;5031526;28;20222;-66
2023/01/15 01:31:52;;;;;;;0.50;0.50;;;9.90;99.90;;;-141.84;74.26;19476.47;5031475;28;20221;-68
2023/01/15 01:34:20;;;;;;;0.67;0.53;;;9.90;99.90;;;-141.84;74.25;19486.66;5050275;28;20220;-67
2023/01/15 01:36:48;;;;;;;0.97;0.53;;;9.90;99.90;;;-141.84;74.41;19454.13;5031752;28;20206;-67
2023/01/15 01:39:19;;;;;;;0.50;0.50;;;9.80;99.90;;;-141.84;75.01;19456.16;5031019;28;20639;-66
2023/01/15 01:41:48;;;;;;;0.80;0.60;;;9.80;99.90;;;-141.84;73.99;19482.56;5031239;28;20230;-67
2023/01/15 01:45:03;;;;;;;0.87;0.63;;;10.00;99.90;;;-141.84;74.44;19521.19;5032542;28;20226;-67
2023/01/15 01:47:34;;;;;;;1.10;0.50;;;9.90;99.90;;;-141.84;73.95;19492.75;5045422;28;20261;-68
2023/01/15 01:50:09;;;;;;;1.37;0.50;;;10.00;99.90;;;-141.84;74.22;19490.72;5043396;28;20222;-67
2023/01/15 01:52:45;;;;;;;0.50;0.50;;;9.90;99.90;;;-141.84;74.91;19439.91;5030982;28;20229;-66
2023/01/15 01:55:17;;;;;;;0.50;0.50;;;9.90;99.90;;;-141.84;75.08;19452.09;5030489;28;20245;-68
2023/01/15 01:57:47;;;;;;;0.83;0.50;;;9.90;99.90;;;-141.84;74.85;19458.19;5051093;28;20209;-67
2023/01/15 02:00:19;;;;;;;0.60;0.50;;;9.80;99.90;;;-141.84;74.79;19492.75;5050730;28;20225;-68
2023/01/15 02:02:49;;;;;;;0.67;0.60;;;9.90;99.90;;;-141.84;74.95;19466.31;5050138;28;20230;-66
2023/01/15 02:05:28;;;;;;;0.50;0.50;;;9.90;99.90;;;-141.84;75.63;19460.22;5038099;28;20236;-67
2023/01/15 02:07:57;;;;;;;1.50;0.60;;;9.80;99.90;;;-141.84;74.71;19464.28;5050761;28;20217;-67
2023/01/15 02:10:25;;;;;;;0.67;0.60;;;9.90;99.90;;;-141.84;75.07;19482.56;5050816;28;20236;-70
2023/01/15 02:13:04;;;;;;;1.40;0.40;;;9.90;99.90;;;-141.84;75.05;19486.66;5051255;28;20236;-68
2023/01/15 02:15:40;;;;;;;0.57;0.57;;;9.90;99.90;;;-141.84;74.89;19494.78;5050994;28;20697;-67
2023/01/15 02:18:21;;;;;;;0.70;0.60;;;9.90;99.90;;;-141.84;73.94;19509.00;5050016;28;20236;-67
2023/01/15 02:20:56;;;;;;;0.60;0.50;;;10.10;99.90;;;-141.84;75.02;19494.78;5036416;28;20236;-67
2023/01/15 02:23:53;;;;;;;0.50;0.50;;;10.00;99.90;;;-141.84;74.84;19506.97;5030600;28;20232;-68
2023/01/15 02:27:07;;;;;;;0.67;0.67;;;10.00;99.90;;;-141.84;75.29;19480.53;5030579;28;20237;-68
2023/01/15 02:29:51;;;;;;;0.60;0.60;;;10.00;99.90;;;-141.84;75.40;19500.88;5041731;28;20229;-66
2023/01/15 02:32:29;;;;;;;1.03;0.43;;;9.90;99.90;;;-141.84;75.82;19431.78;5050057;28;20759;-67
2023/01/15 02:35:06;;;;;;;1.07;0.60;;;9.90;99.90;;;-141.84;75.24;19460.22;5049858;28;20228;-68
2023/01/15 02:37:42;;;;;;;0.60;0.60;;;10.00;99.90;;;-141.84;74.57;19476.47;5050204;28;20231;-68
2023/01/15 02:40:13;;;;;;;0.60;0.60;;;10.00;99.90;;;-141.84;74.75;19486.66;5050540;28;20189;-68
2023/01/15 02:42:46;;;;;;;0.90;0.60;;;10.00;99.90;;;-141.84;75.21;19490.72;5050752;28;20681;-67
2023/01/15 02:45:23;;;;;;;0.53;0.53;;;10.00;99.90;;;-141.84;74.83;19482.56;5050302;28;20221;-67
2023/01/15 02:47:54;;;;;;;0.50;0.50;;;10.00;99.90;;;-141.84;75.17;19500.88;5049855;28;20225;-68
2023/01/15 02:50:30;;;;;;;0.60;0.50;;;10.10;99.90;;;-141.84;75.16;19504.94;5040126;28;20226;-66
2023/01/15 02:53:06;;;;;;;0.50;0.50;;;10.10;99.90;;;-141.84;75.35;19504.94;5041978;28;20225;-67
2023/01/15 02:55:41;;;;;;;0.87;0.57;;;10.10;99.90;;;-141.84;75.58;19504.94;5049718;28;20239;-67
2023/01/15 02:58:16;;;;;;;0.50;0.50;;;10.10;99.90;;;-141.84;76.46;19464.28;5050284;28;20216;-67
2023/01/15 03:00:49;;;;;;;1.80;0.60;;;10.10;99.90;;;-141.84;76.86;19472.41;5050583;28;20199;-60
2023/01/15 03:03:24;;;;;;;0.93;0.57;;;10.10;99.90;;;-141.84;78.18;19439.91;5049385;28;20252;-60
2023/01/15 03:06:02;;;;;;;1.97;0.60;;;10.00;99.90;;;-141.84;79.08;19423.66;5051429;28;20225;-60
2023/01/15 03:08:31;;;;;;;0.50;0.50;;;9.90;99.90;;;-141.84;80.05;19423.66;5053981;28;20221;-59
2023/01/15 03:11:09;;;;;;;0.43;0.43;;;9.90;99.90;;;-141.84;80.21;19470.38;5053949;28;20236;-59
2023/01/15 03:13:51;;;;;;;0.60;0.60;;;9.90;99.90;;;-141.84;80.19;19407.38;5053850;28;20270;-60
2023/01/15 03:16:36;;;;;;;2.70;0.70;;;9.90;99.90;;;-141.84;81.01;19405.34;5053836;28;20212;-59
2023/01/15 03:19:22;;;;;;;0.50;0.50;;;9.80;99.90;;;-141.84;82.26;19403.31;5053543;28;20212;-61
2023/01/15 03:21:56;;;;;;;1.13;0.50;;;9.70;99.90;;;-141.84;82.85;19372.84;5034031;28;20642;-59
2023/01/15 03:24:33;;;;;;;0.40;0.40;;;9.60;99.90;;;-141.84;83.16;19372.84;5033615;28;20228;-60
2023/01/15 03:27:02;;;;;;;1.13;0.60;;;9.60;99.90;;;-141.84;83.53;19350.50;5033936;28;20236;-60
2023/01/15 03:29:37;;;;;;;0.50;0.50;;;9.60;99.90;;;-141.84;83.91;19376.91;5033777;28;20310;-59
2023/01/15 03:32:07;;;;;;;0.73;0.60;;;9.50;99.90;;;-141.84;83.36;19370.81;5033078;28;20242;-59
2023/01/15 03:34:44;;;;;;;1.07;0.57;;;9.60;99.90;;;-141.84;83.57;19346.44;5035095;28;20277;-60
2023/01/15 03:37:12;;;;;;;0.60;0.60;;;9.60;99.90;;;-141.84;83.96;19340.31;5053438;28;20556;-60
2023/01/15 03:39:43;;;;;;;0.40;0.40;;;9.50;99.90;;;-141.84;84.40;19360.66;5053832;28;20452;-68
2023/01/15 03:42:27;;;;;;;0.60;0.60;;;9.50;99.90;;;-141.84;84.42;19344.41;5053374;28;20226;-66
2023/01/15 03:45:06;;;;;;;0.67;0.67;;;9.60;99.90;;;-141.84;83.93;19360.66;5053194;28;20308;-67
2023/01/15 03:47:52;;;;;;;0.57;0.50;;;9.50;99.90;;;-141.84;84.03;19354.56;5053209;28;20229;-67
2023/01/15 03:50:30;;;;;;;0.50;0.50;;;9.50;99.90;;;-141.84;84.41;19366.75;5033104;28;20226;-66
2023/01/15 03:53:11;;;;;;;0.57;0.50;;;9.50;99.90;;;-141.84;83.62;19354.56;5033335;28;20218;-67
2023/01/15 03:55:52;;;;;;;0.73;0.50;;;9.60;99.90;;;-141.84;82.39;19366.75;5032756;28;20237;-66
2023/01/15 03:58:28;;;;;;;0.53;0.50;;;9.70;99.90;;;-141.84;82.67;19330.16;5034373;28;20198;-66
2023/01/15 04:01:02;;;;;;;0.60;0.60;;;9.70;99.90;;;-141.84;82.49;19358.63;5053539;28;20196;-66
2023/01/15 04:03:34;;;;;;;1.40;0.80;;;9.80;99.90;;;-141.84;82.97;19368.78;5052706;28;20688;-66
2023/01/15 04:06:03;;;;;;;0.40;0.40;;;9.70;99.90;;;-141.84;83.31;19364.72;5052656;28;20626;-68
2023/01/15 04:08:38;;;;;;;0.50;0.50;;;9.70;99.90;;;-141.84;83.74;19324.06;5053089;28;20747;-67
2023/01/15 04:11:07;;;;;;;1.37;0.60;;;9.70;99.90;;;-141.84;83.51;19383.00;5053032;28;20220;-68
2023/01/15 04:13:35;;;;;;;0.60;0.50;;;9.70;99.90;;;-141.84;83.47;19358.63;5053012;28;20225;-68
2023/01/15 04:16:05;;;;;;;0.87;0.50;;;9.70;99.90;;;-141.84;83.45;19391.13;5053129;28;20225;-68
2023/01/15 04:18:34;;;;;;;1.73;0.80;;;9.80;99.90;;;-141.84;84.45;19356.59;5051920;28;20220;-68
2023/01/15 04:21:02;;;;;;;0.80;0.70;;;9.80;99.90;;;-141.84;85.61;19309.84;5039426;28;20230;-67
2023/01/15 04:23:32;;;;;;;0.70;0.70;;;9.70;99.90;;;-141.84;86.46;19307.81;5052688;28;20233;-67
2023/01/15 04:26:00;;;;;;;2.87;0.73;;;9.60;99.90;;;-141.84;86.93;19317.97;5052687;28;20221;-67
2023/01/15 04:28:28;;;;;;;0.70;0.70;;;9.50;99.90;;;-141.84;87.81;19305.78;5052469;28;20320;-67
2023/01/15 04:30:58;;;;;;;0.93;0.50;;;9.40;99.90;;;-141.84;88.56;19275.31;5052576;28;20209;-66
2023/01/15 04:33:28;;;;;;;0.40;0.40;;;9.20;99.90;;;-141.84;88.81;19263.09;5051996;28;20229;-67
2023/01/15 04:35:59;;;;;;;0.40;0.40;;;9.20;99.90;;;-141.84;89.36;19265.13;5051745;28;20233;-66
2023/01/15 04:38:27;;;;;;;0.40;0.30;;;9.20;99.90;;;-141.84;89.18;19269.22;5052157;28;20240;-66
2023/01/15 04:46:27;;;;;;;1.47;1.00;;;9.10;99.90;;;-141.84;89.54;19224.50;5051872;28;20232;-67
2023/01/15 04:48:57;;;;;;;1.00;1.00;;;9.10;99.90;;;-141.84;83.96;19214.34;5052758;28;20321;-65
2023/01/15 04:51:25;;;;;;;1.33;1.17;;;8.80;99.90;;;-141.84;82.24;19198.09;5032863;28;20598;-66
2023/01/15 04:53:53;;;;;;;1.10;0.80;;;8.40;99.90;;;-141.84;80.79;19198.09;5031889;28;20581;-64
2023/01/15 04:56:21;;;;;;;0.67;0.67;;;8.10;99.90;;;-141.84;81.22;19194.03;5031749;28;20630;-67
2023/01/15 04:58:49;;;;;;;2.43;0.60;;;7.80;99.90;;;-141.84;80.48;19208.25;5036886;28;20734;-66
2023/01/15 05:01:18;;;;;;;0.97;0.50;;;7.50;99.90;;;-141.84;81.28;19133.06;5051568;28;20242;-67
2023/01/15 05:03:46;;;;;;;1.03;0.60;;;7.20;99.90;;;-141.84;82.23;19118.84;5052440;28;20228;-66
2023/01/15 05:06:17;;;;;;;1.17;0.60;;;7.10;99.90;;;-141.84;82.20;19126.97;5051117;28;20748;-67
2023/01/15 05:08:45;;;;;;;0.90;0.73;;;7.00;99.90;;;-141.84;83.14;19102.56;5051782;28;20695;-66
2023/01/15 05:11:13;;;;;;;1.00;0.80;;;6.80;99.90;;;-141.84;83.80;19124.94;5051642;28;20225;-67
2023/01/15 05:13:42;;;;;;;0.80;0.80;;;6.80;99.90;;;-141.84;84.42;19126.97;5051702;28;20256;-66
2023/01/15 05:16:14;;;;;;;1.10;1.00;;;6.80;99.90;;;-141.84;84.48;19076.16;5050926;28;20221;-66
2023/01/15 05:18:44;;;;;;;0.90;0.90;;;6.80;99.90;;;-141.84;83.54;19118.84;5051894;28;20896;-65
2023/01/15 05:21:20;;;;;;;1.10;0.97;;;6.80;99.90;;;-141.84;83.31;19082.25;5034240;28;20229;-65
2023/01/15 05:23:50;;;;;;;1.53;0.90;;;6.70;99.90;;;-141.84;83.34;19096.47;5031619;28;20229;-65
2023/01/15 05:26:19;;;;;;;2.10;1.00;;;6.70;99.90;;;-141.84;83.93;19092.41;5031277;28;20233;-66
2023/01/15 05:28:49;;;;;;;1.37;1.17;;;6.60;99.90;;;-141.84;84.33;19053.81;5031135;28;20240;-66
2023/01/15 05:31:19;;;;;;;1.20;1.10;;;6.60;99.90;;;-141.84;84.24;19094.44;5030688;28;20214;-66
2023/01/15 05:33:49;;;;;;;1.53;1.43;;;6.60;99.90;;;-141.84;85.26;19072.09;5031319;28;20201;-65
2023/01/15 05:36:22;;;;;;;2.03;1.30;;;6.50;99.90;;;-141.84;84.84;19076.16;5046475;28;20237;-66
2023/01/15 05:38:51;;;;;;;1.07;1.00;;;6.50;99.90;;;-141.84;84.33;19092.41;5051216;28;20278;-67
2023/01/15 05:44:10;;;;;;;0.90;0.80;;;6.40;99.90;;;-141.84;83.30;19110.72;5051063;28;20696;-66
2023/01/15 05:46:41;;;;;;;0.50;0.50;;;6.30;99.90;;;-141.84;83.06;19086.31;5050415;28;20240;-66
2023/01/15 05:49:13;;;;;;;0.50;0.50;;;6.30;99.90;;;-141.84;83.67;19045.69;5051051;28;20192;-66
2023/01/15 05:51:42;;;;;;;1.37;0.57;;;6.30;99.90;;;-141.84;84.60;19045.69;5031446;28;20180;-65
2023/01/15 05:54:14;;;;;;;0.60;0.60;;;6.20;99.90;;;-141.84;85.22;19063.97;5042180;28;20231;-66
2023/01/15 05:56:44;;;;;;;0.60;0.60;;;6.20;99.90;;;-141.84;85.32;19086.31;5030548;28;20229;-67
2023/01/15 05:59:15;;;;;;;1.00;0.73;;;6.10;99.90;;;-141.84;85.51;19084.28;5038985;28;20225;-66
2023/01/15 06:01:43;;;;;;;0.97;0.60;;;6.10;99.90;;;-141.84;85.61;19051.78;5050208;28;20235;-66
2023/01/15 06:04:14;;;;;;;1.40;0.70;;;6.00;99.90;;;-141.84;86.07;19037.56;5049906;28;20657;-65
2023/01/15 06:06:44;;;;;;;0.70;0.70;;;6.00;99.90;;;-141.84;86.63;19023.34;5050689;28;20672;-66
2023/01/15 06:09:12;;;;;;;1.13;0.70;;;6.00;99.90;;;-141.84;86.20;19017.25;5050999;28;20243;-66
2023/01/15 06:11:41;;;;;;;0.80;0.67;;;6.00;99.90;;;-141.84;85.94;19031.47;5050577;28;20227;-66
2023/01/15 06:14:11;;;;;;;1.43;0.80;;;6.00;99.90;;;-141.84;86.23;19037.56;5050651;28;20217;-65
2023/01/15 06:16:40;;;;;;;0.87;0.73;;;6.00;99.90;;;-141.84;86.76;19015.19;5049820;28;20251;-66
2023/01/15 06:19:12;;;;;;;0.70;0.67;;;6.00;99.90;;;-141.84;87.18;19033.50;5050674;28;20262;-66
2023/01/15 06:21:40;;;;;;;1.83;0.60;;;6.00;99.90;;;-141.84;87.60;19015.19;5033711;28;20197;-67
2023/01/15 06:24:11;;;;;;;1.33;0.73;;;6.00;99.90;;;-141.84;87.60;19051.78;5039832;28;20221;-67
2023/01/15 06:26:39;;;;;;;1.13;0.90;;;6.10;99.90;;;-141.84;87.65;19015.19;5043785;28;20751;-66
2023/01/15 06:29:07;;;;;;;0.87;0.80;;;6.00;99.90;;;-141.84;87.95;19021.31;5050306;28;20225;-66
2023/01/15 06:31:36;;;;;;;1.07;0.90;;;6.10;99.90;;;-141.84;86.96;19023.34;5050198;28;20316;-66
2023/01/15 06:34:04;;;;;;;2.20;0.80;;;6.10;99.90;;;-141.84;87.26;18998.94;5050977;28;20649;-67
2023/01/15 06:36:32;;;;;;;1.63;1.03;;;6.00;99.90;;;-141.84;87.74;18984.72;5050453;28;20719;-66
2023/01/15 06:39:00;;;;;;;1.43;0.80;;;6.00;99.90;;;-141.84;87.97;18998.94;5030212;28;20251;-66
2023/01/15 06:47:20;;;;;;;1.07;0.50;;;6.00;99.90;;;-141.84;88.51;18976.59;5054275;28;20224;-67
2023/01/15 06:49:51;;;;;;;0.83;0.73;;;6.00;99.90;;;-141.84;87.80;19023.34;5053955;28;20232;-66
2023/01/15 06:52:19;;;;;;;0.70;0.70;;;6.10;99.90;;;-141.84;87.56;19025.38;5054207;28;20573;-67
2023/01/15 06:54:48;;;;;;;1.17;0.77;;;6.10;99.90;;;-141.84;87.56;19017.25;5054358;28;20232;-67
2023/01/15 06:57:18;;;;;;;0.70;0.70;;;6.10;99.90;;;-141.84;87.76;19037.56;5053866;28;20225;-66
2023/01/15 06:59:47;;;;;;;1.53;0.70;;;6.10;99.90;;;-141.84;87.87;19013.16;5053820;28;20266;-67
2023/01/15 07:02:16;;;;;;;0.70;0.60;;;6.00;99.90;;;-141.84;87.70;18978.63;5053853;28;20244;-65
2023/01/15 07:04:45;;;;;;;0.50;0.50;;;6.10;99.90;;;-141.84;86.29;19043.66;5054027;28;20237;-66
2023/01/15 07:07:14;;;;;;;1.37;0.60;;;6.10;99.90;;;-141.84;85.63;19023.34;5054069;28;20204;-67
2023/01/15 07:09:43;;;;;;;1.17;0.60;;;6.00;99.90;;;-141.84;85.18;19027.41;5054300;28;20569;-67
2023/01/15 07:12:11;;;;;;;1.47;0.40;;;6.00;99.90;;;-141.84;83.79;19007.06;5053855;28;20803;-66
2023/01/15 07:14:41;;;;;;;0.80;0.60;;;6.00;99.90;;;-141.84;83.91;19015.19;5053383;28;20228;-66
2023/01/15 07:17:09;;;;;;;0.77;0.50;;;6.00;99.90;;;-141.84;81.68;19057.88;5053404;28;20240;-67
2023/01/15 07:19:38;;;;;;;1.10;0.50;;;6.00;99.90;;;-141.84;81.07;19023.34;5053041;28;20277;-67
2023/01/15 07:22:07;;;;;;;1.57;0.63;;;6.00;99.90;;;-141.84;82.26;19017.25;5053722;28;20268;-66
2023/01/15 07:24:36;;;;;;;0.77;0.50;;;5.90;99.90;;;-141.84;82.33;19049.75;5053826;28;20206;-66
2023/01/15 07:27:04;;;;;;;0.57;0.40;;;5.90;99.90;;;-141.84;82.57;19025.38;5053553;28;20716;-67
2023/01/15 07:29:32;;;;;;;1.23;0.50;;;5.80;99.90;;;-141.84;81.50;19029.44;5053244;28;20228;-66
2023/01/15 07:32:02;;;;;;;0.47;0.40;;;5.80;99.90;;;-141.84;80.67;19068.03;5053318;28;20234;-67
2023/01/15 07:34:30;;;;;;;0.43;0.40;;;5.80;99.90;;;-141.84;77.85;19066.00;5045150;28;20225;-65
2023/01/15 07:36:58;;;;;;;0.30;0.30;;;5.90;99.90;;;-141.84;78.68;19074.13;5053891;28;20237;-67
2023/01/15 07:39:27;;;;;;;0.40;0.40;;;5.80;99.90;;;-141.84;79.35;19035.53;5052933;28;20231;-66
2023/01/15 07:50:25;;;;;;;0.40;0.40;;;5.70;99.90;;;-141.84;81.36;19043.66;5052519;28;20246;-68
2023/01/15 07:52:53;;;;;;;0.80;0.60;;;5.80;99.90;;;-141.84;81.72;19057.88;5052481;28;20595;-66
2023/01/15 07:55:23;;;;;;;1.10;0.80;;;5.70;99.90;;;-141.84;82.50;19053.81;5052649;28;20242;-68
2023/01/15 07:57:52;;;;;;;0.80;0.80;;;5.80;99.90;;;-141.84;82.74;19025.38;5053684;28;20221;-67
2023/01/15 08:00:23;;;;;;;1.23;0.90;;;5.80;99.90;;;-141.84;83.62;19047.72;5052525;28;20220;-66
2023/01/15 08:02:53;;;;;;;1.10;1.00;;;5.70;99.90;;;-141.84;83.29;19025.38;5052737;28;20228;-67
2023/01/15 08:05:21;;;;;;;1.83;1.10;;;5.80;99.90;;;-141.84;82.99;19009.09;5052597;28;20225;-67
2023/01/15 08:07:49;;;;;;;1.30;1.10;;;5.90;99.90;;;-141.84;82.67;19031.47;5052686;28;20228;-67
2023/01/15 08:10:19;;;;;;;1.37;1.00;;;5.80;99.90;;;-141.84;81.93;19037.56;5052773;28;20208;-66
2023/01/15 08:15:42;;;;;;;2.20;1.07;;;6.00;99.90;;;-141.84;81.52;19057.88;5052625;28;20209;-67
2023/01/15 08:18:12;;;;;;;0.90;0.90;;;5.90;99.90;;;-141.84;81.53;19053.81;5052733;28;20236;-67
2023/01/15 08:20:40;;;;;;;1.93;1.10;;;6.00;99.90;;;-141.84;80.96;19045.69;5051883;28;20229;-67
2023/01/15 08:23:09;;;;;;;2.33;1.47;;;6.00;99.90;;;-141.84;80.39;19033.50;5052745;28;20635;-67
2023/01/15 08:25:37;;;;;;;0.83;0.70;;;6.10;99.90;;;-141.84;79.43;19078.19;5053021;28;20814;-67
2023/01/15 08:28:05;;;;;;;1.23;0.60;;;6.10;99.90;;;-141.84;79.90;19053.81;5053139;28;20211;-64
2023/01/15 08:30:34;;;;;;;0.70;0.70;;;6.00;99.90;;;-141.84;79.46;19070.06;5052648;28;20205;-67
2023/01/15 08:33:02;;;;;;;1.27;0.70;;;6.00;99.90;;;-141.84;79.35;19041.63;5052574;28;20622;-68
2023/01/15 08:35:33;;;;;;;0.70;0.70;;;6.00;99.90;;;-141.84;79.68;19033.50;5052137;28;20237;-67
2023/01/15 08:38:06;;;;;;;1.23;0.90;;;6.00;99.90;;;-141.84;78.73;19076.16;5052133;28;20616;-67
2023/01/15 08:40:35;;;;;;;0.70;0.70;;;6.10;99.90;;;-141.84;77.39;19102.56;5052623;28;20223;-68
2023/01/15 08:43:03;;;;;;;0.97;0.67;;;6.10;99.90;;;-141.84;77.21;19108.69;5053135;28;20210;-69
2023/01/15 08:45:31;;;;;;;1.00;0.70;;;6.10;99.90;;;-141.84;76.46;19090.38;5052226;28;20230;-70
2023/01/15 08:48:00;;;;;;;0.60;0.60;;;6.10;99.90;;;-141.84;76.86;19080.22;5048873;28;20232;-69
2023/01/15 08:50:28;;;;;;;1.30;0.70;;;6.10;99.90;;;-141.84;76.09;19114.78;5051697;28;20273;-69
2023/01/15 08:52:57;;;;;;;1.17;1.07;;;6.20;99.90;;;-141.84;75.30;19137.13;5051258;28;20850;-71
2023/01/15 08:55:25;;;;;;;1.33;1.23;;;6.30;99.90;;;-141.84;75.80;19110.72;5049665;28;20240;-71
2023/01/15 08:57:53;;;;;;;1.00;0.90;;;6.30;99.90;;;-141.84;74.79;19137.13;5050679;28;20221;-72
2023/01/15 09:00:23;;;;;;;1.30;1.13;;;6.30;99.90;;;-141.84;72.71;19167.59;5050338;28;20252;-70
2023/01/15 09:02:51;;;;;;;1.77;1.60;;;6.40;99.90;;;-141.84;73.48;19141.19;5050199;28;20249;-70
2023/01/15 09:05:19;;;;;;;1.33;1.10;;;6.40;99.90;;;-141.84;73.02;19179.78;5046437;28;20232;-71
2023/01/15 09:07:48;;;;;;;1.20;1.10;;;6.50;99.90;;;-141.84;72.60;19169.63;5032279;28;20304;-71
2023/01/15 09:10:18;;;;;;;1.07;0.97;;;6.50;99.90;;;-141.84;72.35;19206.22;5032495;28;20542;-73
2023/01/15 09:12:46;;;;;;;1.13;0.80;;;6.50;99.90;;;-141.84;72.08;19206.22;5032881;28;20213;-71
2023/01/15 09:15:14;;;;;;;1.50;0.90;;;6.60;99.90;;;-141.84;72.33;19175.72;5031708;28;20260;-71
2023/01/15 09:17:43;;;;;;;1.30;1.20;;;6.50;99.90;;;-141.84;71.41;19212.31;5032522;28;20239;-70
2023/01/15 09:20:14;;;;;;;1.33;1.20;;;6.60;99.90;;;-141.84;71.87;19216.38;5032480;28;20230;-71
2023/01/15 09:22:42;;;;;;;1.60;1.13;;;6.60;99.90;;;-141.84;72.50;19202.16;5032701;28;20313;-70
2023/01/15 09:25:10;;;;;;;2.30;1.60;;;6.70;99.90;;;-141.84;71.59;19204.19;5031852;28;20209;-70
2023/01/15 09:27:40;;;;;;;1.60;1.50;;;6.70;99.90;;;-141.84;71.24;19232.63;5051672;28;20208;-72
2023/01/15 09:30:17;;;;;;;1.43;1.00;;;6.70;99.90;;;-141.84;71.84;19218.41;5052925;28;20235;-70
2023/01/15 09:32:45;;;;;;;1.37;0.80;;;6.70;99.90;;;-141.84;71.11;19216.38;5052198;28;20235;-72
2023/01/15 09:35:14;;;;;;;0.93;0.70;;;6.70;99.90;;;-141.84;70.14;19240.75;5051261;28;20776;-72
2023/01/15 09:37:42;;;;;;;1.50;1.10;;;6.80;99.90;;;-141.84;70.89;19252.94;5051336;28;20232;-70
2023/01/15 09:40:40;;;;;;;0.80;0.70;;;6.80;99.90;;;-141.84;70.33;19250.91;5051615;28;20209;-70
2023/01/15 09:43:26;;;;;;;0.87;0.70;;;6.90;99.90;;;-141.84;70.05;19244.81;5051725;28;20212;-73
2023/01/15 09:46:01;;;;;;;0.50;0.50;;;6.90;99.90;;;-141.84;69.23;19244.81;5051965;28;20185;-72
2023/01/15 09:48:48;;;;;;;0.67;0.67;;;7.00;99.90;;;-141.84;69.62;19248.88;5052094;28;20232;-72
2023/01/15 09:51:31;;;;;;;1.53;0.80;;;7.00;99.90;;;-141.84;70.08;19220.44;5051192;28;20233;-70
2023/01/15 09:54:21;;;;;;;0.50;0.50;;;7.00;99.90;;;-141.84;68.91;19252.94;5044380;28;20237;-71
2023/01/15 09:56:50;;;;;;;0.80;0.60;;;7.00;99.90;;;-141.84;68.88;19269.22;5030804;28;20237;-69
2023/01/15 09:59:33;;;;;;;2.17;1.07;;;7.10;99.90;;;-141.84;68.18;19297.66;5039757;28;20240;-71
2023/01/15 10:02:20;;;;;;;0.80;0.70;;;7.20;99.90;;;-141.84;67.46;19273.28;5051341;28;20229;-73
2023/01/15 10:04:56;;;;;;;0.83;0.60;;;7.20;99.90;;;-141.84;67.61;19285.47;5050399;28;20221;-71
2023/01/15 10:07:33;;;;;;;1.03;0.80;;;7.20;99.90;;;-141.84;67.24;19261.06;5051493;28;20206;-61
2023/01/15 10:10:11;;;;;;;1.00;0.60;;;7.20;99.90;;;-141.84;67.26;19291.56;5051335;28;20188;-62
2023/01/15 10:12:43;;;;;;;0.80;0.57;;;7.30;99.90;;;-141.84;66.89;19291.56;5051079;28;20217;-61
2023/01/15 10:15:24;;;;;;;0.87;0.60;;;7.30;99.90;;;-141.84;66.80;19330.16;5051757;28;20312;-62
2023/01/15 10:17:56;;;;;;;1.00;0.60;;;7.30;99.90;;;-141.84;66.87;19287.50;5051696;28;20292;-63
2023/01/15 10:20:51;;;;;;;1.07;0.60;;;7.30;99.90;;;-141.84;66.98;19285.47;5050293;28;20233;-63
2023/01/15 10:23:38;;;;;;;1.00;0.80;;;7.30;99.90;;;-141.84;67.26;19307.81;5050631;28;20229;-62
2023/01/15 10:26:36;;;;;;;0.73;0.50;;;7.30;99.90;;;-141.84;65.94;19322.03;5050455;28;20221;-60
2023/01/15 10:29:18;;;;;;;0.43;0.43;;;7.40;99.90;;;-141.84;66.09;19297.66;5050732;28;20217;-61
2023/01/15 10:31:53;;;;;;;1.20;0.80;;;7.30;99.90;;;-141.84;66.04;19330.16;5050688;28;20239;-61
2023/01/15 10:35:08;;;;;;;1.20;0.70;;;7.30;99.90;;;-141.84;65.14;19326.09;5050396;28;20763;-62
2023/01/15 10:37:44;;;;;;;1.27;0.73;;;7.30;99.90;;;-141.84;65.58;19315.94;5030741;28;20221;-60
2023/01/15 10:40:31;;;;;;;0.97;0.70;;;7.30;99.90;;;-141.84;64.52;19326.09;5047036;28;20209;-61
2023/01/15 10:43:13;;;;;;;2.13;0.60;;;7.30;99.90;;;-141.84;65.28;19311.88;5051140;28;20197;-59
2023/01/15 10:45:47;;;;;;;1.30;0.60;;;7.30;99.90;;;-141.84;64.57;19370.81;5050714;28;20552;-59
2023/01/15 10:48:29;;;;;;;2.13;0.70;;;7.40;99.90;;;-141.84;63.46;19358.63;5050339;28;20554;-59
2023/01/15 10:51:03;;;;;;;1.00;0.60;;;7.40;99.90;;;-141.84;63.93;19336.25;5037597;28;20565;-60
2023/01/15 10:53:42;;;;;;;0.87;0.60;;;7.40;99.90;;;-141.84;63.61;19328.13;5030550;28;20233;-61
2023/01/15 10:56:20;;;;;;;0.77;0.60;;;7.40;99.90;;;-141.84;63.48;19354.56;5048908;28;20240;-60
2023/01/15 10:59:00;;;;;;;1.40;0.80;;;7.50;99.90;;;-141.84;63.24;19348.47;5050406;28;20224;-59
2023/01/15 11:01:29;;;;;;;1.43;0.70;;;7.60;99.90;;;-141.84;62.67;19401.28;5050299;28;20693;-60
2023/01/15 11:03:59;;;;;;;1.00;0.67;;;7.60;99.90;;;-141.84;62.79;19397.22;5050567;28;20255;-60
2023/01/15 11:06:33;;;;;;;2.20;0.50;;;7.70;99.90;;;-141.84;61.70;19393.16;5049870;28;20240;-60